Castle Cary, United Kingdom
Current Conditions -  °F | °C
As of 5:50 PM on Thursday 27 Nov 2014 (Local Time) from EGDY Reporting Station
Haze Haze  
Wind Chill: 43°   Ceiling: Unl
Heat Index: 48°   Visibility: 4mi
Dew Point: 46°   Wind: 13mph
Humidity: 93%   Direction: 110°ESE
Pressure: 29.5"   Gusts: NA
Location:  51.09°N, 2.51°W
Report Text: EGDY 271750Z 11011KT 6000 HZ FEW010 SCT018 09/08 Q0999 WHT
Loading
Personal Weather Stations






























Interactive Weather Map New forecast layout! Learn more

10-Day Weather Forecast

Advertisements
Track Severe Weather on mobile